Time;durP1;ratioP1;P1;durP2;ratioP2;P2;SDS_P1;SDS_P2;PMS_P1;PMS_P2;Temp;Humidity;BMP_temperature;BMP_pressure;BME280_temperature;BME280_humidity;BME280_pressure;Samples;Min_cycle;Max_cycle;Signal;HPM_P1;HPM_P2
2021/05/25 00:01:27;;;;;;;;;;;;;;;19.98;59.33;95392.25;5008474;28;19998;-77
2021/05/25 00:03:53;;;;;;;;;;;;;;;19.94;59.53;95393.09;5028919;28;19924;-77
2021/05/25 00:06:18;;;;;;;;;;;;;;;19.95;59.40;95386.75;5028781;28;20058;-77
2021/05/25 00:08:43;;;;;;;;;;;;;;;20.04;59.17;95385.13;5028249;28;19944;-77
2021/05/25 00:11:08;;;;;;;;;;;;;;;19.97;59.35;95377.50;5010582;28;20075;-77
2021/05/25 00:13:34;;;;;;;;;;;;;;;20.01;59.30;95369.81;5033677;28;19921;-78
2021/05/25 00:15:59;;;;;;;;;;;;;;;19.98;59.41;95378.28;5029045;28;19947;-77
2021/05/25 00:18:24;;;;;;;;;;;;;;;19.96;59.38;95380.41;5049202;22;20363;-77
2021/05/25 00:20:53;;;;;;;;;;;;;;;20.01;59.54;95385.63;5049377;22;20025;-77
2021/05/25 00:23:19;;;;;;;;;;;;;;;19.95;59.34;95381.47;5004614;28;19961;-77
2021/05/25 00:25:44;;;;;;;;;;;;;;;19.94;59.60;95391.25;5021897;28;20424;-78
2021/05/25 00:28:09;;;;;;;;;;;;;;;19.84;59.86;95390.53;5022972;28;19972;-77
2021/05/25 00:30:35;;;;;;;;;;;;;;;19.81;60.07;95369.97;5022906;28;19932;-77
2021/05/25 00:33:00;;;;;;;;;;;;;;;19.79;59.92;95373.69;5022484;28;20454;-77
2021/05/25 00:35:29;;;;;;;;;;;;;;;19.72;60.25;95367.16;5021888;28;19925;-77
2021/05/25 00:37:54;;;;;;;;;;;;;;;19.66;60.75;95358.47;5021988;28;19929;-77
2021/05/25 00:40:20;;;;;;;;;;;;;;;19.68;60.56;95364.25;5021620;28;19925;-77
2021/05/25 00:42:45;;;;;;;;;;;;;;;19.63;60.70;95348.47;5129447;23;20029;-77
2021/05/25 00:45:10;;;;;;;;;;;;;;;19.61;60.70;95345.31;4993764;28;19921;-77
2021/05/25 00:47:36;;;;;;;;;;;;;;;19.55;60.86;95359.63;5011184;28;19921;-77
2021/05/25 00:50:12;;;;;;;;;;;;;;;19.47;61.21;95355.66;5011834;28;20558;-76
2021/05/25 00:52:42;;;;;;;;;;;;;;;19.47;61.23;95360.16;4999305;23;20338;-77
2021/05/25 00:55:07;;;;;;;;;;;;;;;19.42;61.32;95357.56;5060881;28;19924;-77
2021/05/25 00:57:33;;;;;;;;;;;;;;;19.44;61.20;95360.72;5060044;28;19924;-77
2021/05/25 00:59:58;;;;;;;;;;;;;;;19.36;61.53;95350.72;5059911;28;19926;-77
2021/05/25 01:02:24;;;;;;;;;;;;;;;19.44;61.21;95360.72;5061213;28;20461;-77
2021/05/25 01:04:49;;;;;;;;;;;;;;;19.46;61.16;95369.13;5062315;28;19921;-77
2021/05/25 01:07:14;;;;;;;;;;;;;;;19.36;61.59;95379.72;5061185;28;19932;-77
2021/05/25 01:09:39;;;;;;;;;;;;;;;19.37;61.25;95366.31;5058734;28;19921;-77
2021/05/25 01:12:05;;;;;;;;;;;;;;;19.34;61.62;95381.84;5058382;28;19932;-77
2021/05/25 01:14:37;;;;;;;;;;;;;;;19.31;61.54;95377.13;5060914;28;19935;-77
2021/05/25 01:17:02;;;;;;;;;;;;;;;19.34;61.63;95372.09;5081178;22;20334;-77
2021/05/25 01:19:28;;;;;;;;;;;;;;;19.25;61.52;95367.69;5041020;28;19975;-77
2021/05/25 01:21:53;;;;;;;;;;;;;;;19.26;61.67;95358.72;5039998;28;20385;-77
2021/05/25 01:24:18;;;;;;;;;;;;;;;19.26;61.50;95364.78;5055539;22;19925;-77
2021/05/25 01:26:43;;;;;;;;;;;;;;;19.26;61.64;95361.34;5041805;28;19928;-77
2021/05/25 01:29:09;;;;;;;;;;;;;;;19.27;61.69;95370.84;5040311;28;20019;-77
2021/05/25 01:31:34;;;;;;;;;;;;;;;19.14;61.80;95357.19;5025120;28;20402;-77
2021/05/25 01:33:59;;;;;;;;;;;;;;;19.12;62.04;95353.25;5026892;28;19924;-77
2021/05/25 01:36:24;;;;;;;;;;;;;;;19.09;62.17;95354.59;5007817;28;19953;-77
2021/05/25 01:38:50;;;;;;;;;;;;;;;19.15;61.60;95347.44;5021931;28;20000;-77
2021/05/25 01:41:15;;;;;;;;;;;;;;;19.13;61.53;95342.44;5039383;28;20400;-77
2021/05/25 01:43:40;;;;;;;;;;;;;;;19.13;61.47;95352.97;5040804;28;19935;-77
2021/05/25 01:46:06;;;;;;;;;;;;;;;19.03;61.68;95342.47;5024128;28;19960;-77
2021/05/25 01:48:31;;;;;;;;;;;;;;;18.99;61.89;95354.63;5005494;28;19928;-77
2021/05/25 01:50:56;;;;;;;;;;;;;;;19.09;61.43;95356.44;5041191;28;19928;-77
2021/05/25 01:53:24;;;;;;;;;;;;;;;19.10;61.45;95350.88;5006146;28;20365;-77
2021/05/25 01:55:51;;;;;;;;;;;;;;;19.16;61.13;95344.50;5020190;28;20021;-77
2021/05/25 01:58:16;;;;;;;;;;;;;;;19.15;60.96;95340.31;5039210;28;19925;-77
2021/05/25 02:00:43;;;;;;;;;;;;;;;19.08;61.05;95342.47;5040457;28;19921;-77
2021/05/25 02:03:09;;;;;;;;;;;;;;;19.07;61.26;95334.84;5040849;28;19924;-77
2021/05/25 02:05:34;;;;;;;;;;;;;;;19.04;61.24;95330.09;5040127;28;20038;-76
2021/05/25 02:07:59;;;;;;;;;;;;;;;19.00;61.27;95329.06;5021756;28;19975;-77
2021/05/25 02:10:29;;;;;;;;;;;;;;;18.92;61.70;95327.00;5021492;28;20277;-77
2021/05/25 02:12:55;;;;;;;;;;;;;;;18.92;61.97;95327.78;5032852;28;19948;-77
2021/05/25 02:15:21;;;;;;;;;;;;;;;18.90;62.03;95329.91;5040598;28;19970;-77
2021/05/25 02:17:46;;;;;;;;;;;;;;;18.95;61.68;95332.50;5050133;28;19959;-76
2021/05/25 02:20:11;;;;;;;;;;;;;;;18.95;61.46;95329.88;5060666;28;19925;-76
2021/05/25 02:22:36;;;;;;;;;;;;;;;18.96;61.34;95328.03;5054384;28;19928;-77
2021/05/25 02:25:02;;;;;;;;;;;;;;;18.87;61.72;95331.25;5040113;28;20383;-76
2021/05/25 02:27:27;;;;;;;;;;;;;;;18.89;61.38;95328.34;5019763;28;19925;-77
2021/05/25 02:29:52;;;;;;;;;;;;;;;18.83;61.65;95326.75;5040024;28;19931;-77
2021/05/25 02:32:18;;;;;;;;;;;;;;;18.86;61.56;95319.09;5039845;28;19936;-77
2021/05/25 02:34:43;;;;;;;;;;;;;;;18.74;61.86;95323.13;5037815;28;20387;-77
2021/05/25 02:37:08;;;;;;;;;;;;;;;18.77;61.49;95320.75;5039323;28;19970;-76
2021/05/25 02:39:33;;;;;;;;;;;;;;;18.89;61.20;95329.13;5021883;28;19928;-77
2021/05/25 02:41:59;;;;;;;;;;;;;;;18.86;61.30;95323.59;5003189;28;20010;-76
2021/05/25 02:44:24;;;;;;;;;;;;;;;18.83;61.15;95330.19;5039451;28;20281;-78
2021/05/25 02:46:49;;;;;;;;;;;;;;;18.66;61.73;95334.22;5039862;28;19921;-78
2021/05/25 02:49:14;;;;;;;;;;;;;;;18.63;61.76;95337.38;5039464;28;20308;-77
2021/05/25 02:51:40;;;;;;;;;;;;;;;18.64;61.87;95333.69;5042971;28;20011;-77
2021/05/25 02:54:05;;;;;;;;;;;;;;;18.49;62.26;95343.19;5039167;28;20297;-77
2021/05/25 02:56:30;;;;;;;;;;;;;;;18.46;62.54;95338.47;5037649;28;19921;-77
2021/05/25 02:58:56;;;;;;;;;;;;;;;18.36;62.61;95348.22;5038098;28;19928;-77
2021/05/25 03:01:21;;;;;;;;;;;;;;;18.48;62.46;95336.34;5039829;28;19921;-77
2021/05/25 03:06:16;;;;;;;;;;;;;;;18.55;62.28;95328.97;5092670;22;19951;-78
2021/05/25 03:08:41;;;;;;;;;;;;;;;18.46;62.64;95324.50;5018466;28;20337;-77
2021/05/25 03:11:07;;;;;;;;;;;;;;;18.42;62.72;95318.22;5030135;28;20050;-78
2021/05/25 03:13:32;;;;;;;;;;;;;;;18.32;63.14;95326.91;5012094;28;19921;-78
2021/05/25 03:15:57;;;;;;;;;;;;;;;18.40;62.87;95330.88;5028194;28;19985;-77
2021/05/25 03:18:23;;;;;;;;;;;;;;;18.50;62.75;95342.13;5030065;28;19979;-77
2021/05/25 03:20:49;;;;;;;;;;;;;;;18.57;62.61;95337.38;5048998;22;20373;-78
2021/05/25 03:23:17;;;;;;;;;;;;;;;18.67;62.37;95338.44;5039360;28;19932;-78
2021/05/25 03:25:43;;;;;;;;;;;;;;;18.70;62.30;95335.25;5050136;28;20975;-78
2021/05/25 03:28:08;;;;;;;;;;;;;;;18.72;62.30;95338.44;5048608;28;20000;-77
2021/05/25 03:30:33;;;;;;;;;;;;;;;18.65;62.26;95338.69;5049468;28;19924;-78
2021/05/25 03:32:59;;;;;;;;;;;;;;;18.70;61.94;95345.78;5049789;28;20277;-78
2021/05/25 03:35:24;;;;;;;;;;;;;;;18.64;62.19;95347.66;5049267;28;20396;-78
2021/05/25 03:37:49;;;;;;;;;;;;;;;18.71;61.99;95352.63;5031125;28;19950;-78
2021/05/25 03:40:15;;;;;;;;;;;;;;;18.84;61.56;95352.84;5049504;28;19921;-78
2021/05/25 03:42:44;;;;;;;;;;;;;;;18.82;61.66;95369.97;5048203;28;19967;-78
2021/05/25 03:45:09;;;;;;;;;;;;;;;18.81;61.24;95377.09;5051925;28;19924;-77
2021/05/25 03:47:34;;;;;;;;;;;;;;;18.76;61.20;95376.34;5046065;22;19929;-77
2021/05/25 03:50:09;;;;;;;;;;;;;;;18.69;61.40;95365.28;5009875;28;20312;-77
2021/05/25 03:52:37;;;;;;;;;;;;;;;18.58;61.63;95370.56;5009521;28;19922;-77
2021/05/25 03:55:05;;;;;;;;;;;;;;;18.74;61.07;95370.56;4990208;28;19928;-77
2021/05/25 03:59:58;;;;;;;;;;;;;;;18.92;60.39;95372.59;5009211;28;19921;-77
2021/05/25 04:02:24;;;;;;;;;;;;;;;19.05;59.93;95377.28;5008847;28;19956;-77
2021/05/25 04:04:52;;;;;;;;;;;;;;;19.00;60.10;95366.75;5009104;28;20051;-77
2021/05/25 04:07:17;;;;;;;;;;;;;;;18.98;60.12;95355.69;5020748;23;20044;-77
2021/05/25 04:09:42;;;;;;;;;;;;;;;19.04;59.96;95344.06;5055411;22;19988;-77
2021/05/25 04:12:08;;;;;;;;;;;;;;;19.51;58.73;95345.34;5043584;28;19925;-77
2021/05/25 04:14:33;;;;;;;;;;;;;;;19.72;57.43;95367.94;5019259;28;19921;-77
2021/05/25 04:16:58;;;;;;;;;;;;;;;20.01;56.60;95364.53;5017192;28;19932;-77
2021/05/25 04:19:24;;;;;;;;;;;;;;;20.43;55.10;95366.53;5017493;28;19922;-77
2021/05/25 04:21:49;;;;;;;;;;;;;;;20.61;54.18;95372.97;5017128;28;19921;-77
2021/05/25 04:24:14;;;;;;;;;;;;;;;20.89;53.43;95374.75;5019431;28;19921;-78
2021/05/25 04:26:40;;;;;;;;;;;;;;;21.20;52.54;95379.69;5017118;28;19921;-78
2021/05/25 04:29:05;;;;;;;;;;;;;;;21.63;51.31;95387.56;5019962;28;19921;-79
2021/05/25 04:31:31;;;;;;;;;;;;;;;22.20;49.95;95380.34;5020261;28;20388;-80
2021/05/25 04:33:57;;;;;;;;;;;;;;;23.09;47.55;95390.66;5005500;28;20381;-77
2021/05/25 04:36:38;;;;;;;;;;;;;;;23.47;46.03;95393.84;5022292;28;19928;-79
2021/05/25 04:39:15;;;;;;;;;;;;;;;23.83;45.46;95399.94;5039754;23;19937;-78
2021/05/25 04:41:41;;;;;;;;;;;;;;;24.02;44.82;95391.81;5060266;28;19925;-80
2021/05/25 04:44:06;;;;;;;;;;;;;;;24.51;43.34;95385.56;5043035;28;19963;-78
2021/05/25 04:46:31;;;;;;;;;;;;;;;25.65;40.82;95382.88;5039212;28;19921;-79
2021/05/25 04:48:56;;;;;;;;;;;;;;;26.66;38.72;95388.72;5037914;28;19921;-79
2021/05/25 04:51:22;;;;;;;;;;;;;;;28.01;35.89;95388.59;5039743;28;19999;-80
2021/05/25 04:53:47;;;;;;;;;;;;;;;28.82;34.20;95389.03;5024487;28;19921;-80
2021/05/25 04:56:13;;;;;;;;;;;;;;;29.97;32.05;95389.47;5042241;28;20060;-79
2021/05/25 04:58:38;;;;;;;;;;;;;;;30.42;30.93;95394.50;5042692;28;19921;-80
2021/05/25 05:01:03;;;;;;;;;;;;;;;30.53;30.56;95392.09;5042040;28;19925;-80
2021/05/25 05:03:29;;;;;;;;;;;;;;;31.05;29.81;95397.25;5092109;22;20411;-80
2021/05/25 05:05:55;;;;;;;;;;;;;;;31.88;28.11;95394.47;5025925;22;19959;-79
2021/05/25 05:08:20;;;;;;;;;;;;;;;32.34;27.30;95397.31;5033956;28;20374;-79
2021/05/25 05:10:45;;;;;;;;;;;;;;;32.18;27.89;95394.69;5025548;28;19971;-80
2021/05/25 05:13:10;;;;;;;;;;;;;;;31.92;27.99;95395.34;5005793;28;19956;-80
2021/05/25 05:15:36;;;;;;;;;;;;;;;31.20;28.90;95406.44;4998882;28;19949;-80
2021/05/25 05:18:01;;;;;;;;;;;;;;;30.08;30.33;95409.31;5018405;23;19979;-79
2021/05/25 05:20:27;;;;;;;;;;;;;;;29.81;31.01;95407.38;5044737;28;19921;-79
2021/05/25 05:22:52;;;;;;;;;;;;;;;30.65;29.84;95413.53;5029218;28;20377;-79
2021/05/25 05:25:18;;;;;;;;;;;;;;;31.64;28.49;95408.97;5033187;28;19984;-80
2021/05/25 05:27:43;;;;;;;;;;;;;;;32.92;26.59;95416.06;5044739;28;19924;-80
2021/05/25 05:30:09;;;;;;;;;;;;;;;32.36;27.12;95411.19;5088707;22;19972;-79
2021/05/25 05:32:34;;;;;;;;;;;;;;;32.57;27.26;95405.44;5045517;28;20462;-79
2021/05/25 05:34:59;;;;;;;;;;;;;;;33.51;25.91;95414.66;5036881;28;19927;-79
2021/05/25 05:37:25;;;;;;;;;;;;;;;34.47;24.70;95405.84;5037604;28;20392;-79
2021/05/25 05:39:50;;;;;;;;;;;;;;;36.35;22.62;95403.69;5036828;28;19921;-79
2021/05/25 05:42:15;;;;;;;;;;;;;;;37.56;20.83;95411.88;5055725;28;19921;-79
2021/05/25 05:44:56;;;;;;;;;;;;;;;38.79;19.32;95411.00;5054818;28;20524;-79
2021/05/25 05:47:21;;;;;;;;;;;;;;;39.08;19.25;95411.59;5055823;28;20373;-80
2021/05/25 05:49:46;;;;;;;;;;;;;;;39.33;18.86;95409.41;5054144;28;19917;-79
2021/05/25 05:52:12;;;;;;;;;;;;;;;39.43;18.67;95407.00;5054431;28;20351;-79
2021/05/25 05:54:37;;;;;;;;;;;;;;;39.81;18.14;95400.38;5054250;28;20355;-79
2021/05/25 05:57:03;;;;;;;;;;;;;;;38.86;19.13;95408.22;5053925;28;19927;-80
2021/05/25 05:59:29;;;;;;;;;;;;;;;37.76;19.94;95406.06;5019988;28;20376;-80
2021/05/25 06:01:55;;;;;;;;;;;;;;;37.25;20.29;95408.00;5051497;28;19925;-80
2021/05/25 06:04:20;;;;;;;;;;;;;;;37.10;20.68;95411.13;5053810;28;19925;-80
2021/05/25 06:06:46;;;;;;;;;;;;;;;36.58;21.56;95397.91;5012213;28;19924;-78
2021/05/25 06:09:11;;;;;;;;;;;;;;;37.12;20.86;95408.81;5061814;28;19921;-78
2021/05/25 06:11:36;;;;;;;;;;;;;;;37.53;20.79;95396.38;5060666;28;20204;-78
2021/05/25 06:14:04;;;;;;;;;;;;;;;37.91;20.40;95412.97;5049043;28;19921;-80
2021/05/25 06:16:31;;;;;;;;;;;;;;;38.47;19.08;95400.31;5051551;28;19920;-80
2021/05/25 06:18:57;;;;;;;;;;;;;;;38.22;19.86;95395.00;5036466;28;19920;-80
2021/05/25 06:21:22;;;;;;;;;;;;;;;38.13;19.52;95403.56;5035427;28;19980;-79
2021/05/25 06:23:47;;;;;;;;;;;;;;;37.35;20.64;95406.50;5021638;28;20343;-80
2021/05/25 06:26:12;;;;;;;;;;;;;;;37.28;20.67;95400.31;5037792;28;19921;-80
2021/05/25 06:28:38;;;;;;;;;;;;;;;36.38;21.52;95396.72;5055335;28;19929;-79
2021/05/25 06:31:04;;;;;;;;;;;;;;;35.67;22.67;95396.41;5052446;28;19921;-79
2021/05/25 06:33:29;;;;;;;;;;;;;;;35.03;23.36;95399.44;5006258;28;19979;-79
2021/05/25 06:35:55;;;;;;;;;;;;;;;34.97;23.69;95392.03;5005413;28;19928;-79
2021/05/25 06:38:20;;;;;;;;;;;;;;;34.87;23.78;95388.91;5043932;28;19924;-79
2021/05/25 06:40:45;;;;;;;;;;;;;;;34.23;24.60;95385.53;5050435;28;19963;-80
2021/05/25 06:43:11;;;;;;;;;;;;;;;34.12;24.51;95387.34;5013646;28;20046;-80
2021/05/25 06:45:43;;;;;;;;;;;;;;;32.68;26.70;95385.63;5027666;28;19975;-79
2021/05/25 06:48:08;;;;;;;;;;;;;;;31.84;27.95;95385.56;5057361;28;19925;-79
2021/05/25 06:50:34;;;;;;;;;;;;;;;31.57;28.33;95382.72;5043156;28;19979;-81
2021/05/25 06:52:59;;;;;;;;;;;;;;;30.79;29.51;95380.91;5024824;28;20095;-78
2021/05/25 06:55:27;;;;;;;;;;;;;;;30.64;29.64;95374.41;5008937;28;20019;-78
2021/05/25 06:57:55;;;;;;;;;;;;;;;30.45;30.16;95371.59;5039595;28;19929;-80
2021/05/25 07:00:22;;;;;;;;;;;;;;;30.69;30.08;95367.97;5047748;28;19998;-80
2021/05/25 07:05:14;;;;;;;;;;;;;;;30.22;30.91;95368.69;5911802;22;19929;-79
2021/05/25 07:07:40;;;;;;;;;;;;;;;29.76;31.80;95368.19;5031684;28;19925;-82
2021/05/25 07:10:06;;;;;;;;;;;;;;;29.91;31.68;95347.13;5031386;28;19921;-81
2021/05/25 07:12:31;;;;;;;;;;;;;;;29.71;32.13;95354.25;5032430;28;19968;-81
2021/05/25 07:14:56;;;;;;;;;;;;;;;28.49;34.01;95352.41;5028872;28;20462;-80
2021/05/25 07:17:22;;;;;;;;;;;;;;;27.88;35.45;95340.75;5010406;28;19925;-81
2021/05/25 07:19:47;;;;;;;;;;;;;;;28.22;34.51;95347.66;5032496;28;20024;-80
2021/05/25 07:22:12;;;;;;;;;;;;;;;27.68;35.80;95347.69;5032539;28;19925;-80
2021/05/25 07:24:37;;;;;;;;;;;;;;;27.29;36.42;95346.22;4989397;28;20356;-80
2021/05/25 07:27:03;;;;;;;;;;;;;;;27.03;37.20;95341.06;5016255;28;20024;-81
2021/05/25 07:29:28;;;;;;;;;;;;;;;27.23;36.86;95348.28;5032272;28;19987;-80
2021/05/25 07:31:53;;;;;;;;;;;;;;;27.05;37.19;95344.19;4992921;28;19928;-80
2021/05/25 07:34:19;;;;;;;;;;;;;;;27.05;37.09;95341.50;5000876;28;20385;-80
2021/05/25 07:36:46;;;;;;;;;;;;;;;27.04;37.44;95345.28;5034835;28;19937;-81
2021/05/25 07:39:12;;;;;;;;;;;;;;;26.78;37.98;95332.81;4991681;28;19921;-80
2021/05/25 07:41:38;;;;;;;;;;;;;;;26.87;38.07;95346.13;4998042;28;19927;-80
2021/05/25 07:44:03;;;;;;;;;;;;;;;26.82;38.06;95348.97;4998704;28;19926;-81
2021/05/25 07:46:30;;;;;;;;;;;;;;;26.76;38.08;95345.69;4998043;28;19921;-81
2021/05/25 07:48:55;;;;;;;;;;;;;;;26.78;38.06;95343.50;5032897;28;19979;-81
2021/05/25 07:51:21;;;;;;;;;;;;;;;26.82;38.17;95344.41;5014704;28;20423;-81
2021/05/25 07:53:46;;;;;;;;;;;;;;;26.74;37.92;95345.25;5014347;28;19928;-81
2021/05/25 07:56:11;;;;;;;;;;;;;;;26.65;38.41;95341.03;5031339;28;19983;-81
2021/05/25 07:58:37;;;;;;;;;;;;;;;26.04;39.57;95351.88;5014709;28;19931;-80
2021/05/25 08:01:02;;;;;;;;;;;;;;;25.46;40.59;95347.81;5009900;28;19936;-80
2021/05/25 08:03:28;;;;;;;;;;;;;;;24.67;42.53;95346.03;5032441;28;19928;-80
2021/05/25 08:05:54;;;;;;;;;;;;;;;24.57;42.83;95337.53;5020682;28;20365;-79
2021/05/25 08:08:19;;;;;;;;;;;;;;;24.31;43.50;95340.91;5012051;28;19925;-79
2021/05/25 08:10:44;;;;;;;;;;;;;;;24.17;44.17;95340.16;4994938;28;19971;-79
2021/05/25 08:13:10;;;;;;;;;;;;;;;23.89;44.93;95339.53;5011501;28;19925;-79
2021/05/25 08:15:38;;;;;;;;;;;;;;;23.98;44.90;95337.72;4994803;28;20309;-79
2021/05/25 08:20:29;;;;;;;;;;;;;;;24.04;45.00;95336.50;5014244;28;19921;-81
2021/05/25 08:22:55;;;;;;;;;;;;;;;24.07;45.22;95345.72;4999324;28;20004;-80
2021/05/25 08:25:23;;;;;;;;;;;;;;;24.30;44.62;95335.88;5016911;28;19921;-81
2021/05/25 08:27:48;;;;;;;;;;;;;;;24.66;43.78;95330.41;5003822;28;19921;-81
2021/05/25 08:30:14;;;;;;;;;;;;;;;24.75;43.70;95326.69;5033996;28;20324;-80
2021/05/25 08:32:40;;;;;;;;;;;;;;;25.00;43.40;95330.50;5013734;28;20007;-81
2021/05/25 08:35:05;;;;;;;;;;;;;;;25.48;42.45;95334.94;5013940;28;20014;-80
2021/05/25 08:37:32;;;;;;;;;;;;;;;25.70;41.77;95334.81;4997654;28;19921;-81
2021/05/25 08:39:58;;;;;;;;;;;;;;;25.48;42.50;95329.63;4988748;28;20059;-81
2021/05/25 08:42:23;;;;;;;;;;;;;;;25.40;42.06;95325.09;5033140;28;19960;-81
2021/05/25 08:44:48;;;;;;;;;;;;;;;25.04;43.10;95326.13;5016828;28;20238;-81
2021/05/25 08:47:14;;;;;;;;;;;;;;;25.07;43.16;95320.22;5008633;28;19922;-81
2021/05/25 08:49:39;;;;;;;;;;;;;;;25.31;42.52;95318.97;4991075;28;19956;-80
2021/05/25 08:52:06;;;;;;;;;;;;;;;25.59;42.18;95320.22;5014786;28;19917;-81
2021/05/25 08:54:31;;;;;;;;;;;;;;;25.98;41.44;95319.25;5035060;28;19982;-80
2021/05/25 08:56:57;;;;;;;;;;;;;;;25.98;40.98;95318.47;5035077;28;19917;-80
2021/05/25 08:59:22;;;;;;;;;;;;;;;25.76;41.43;95327.47;5000612;28;19991;-80
2021/05/25 09:01:49;;;;;;;;;;;;;;;25.62;41.86;95319.59;5017257;28;19925;-80
2021/05/25 09:04:15;;;;;;;;;;;;;;;25.52;41.88;95311.91;5034902;28;19960;-80
2021/05/25 09:06:41;;;;;;;;;;;;;;;25.53;41.82;95313.47;5000701;28;19948;-80
2021/05/25 09:09:13;;;;;;;;;;;;;;;25.19;42.82;95300.16;5016433;28;19921;-80
2021/05/25 09:11:59;;;;;;;;;;;;;;;25.18;43.11;95303.94;4992645;28;20385;-80
2021/05/25 09:14:25;;;;;;;;;;;;;;;25.19;43.07;95290.31;5016565;28;19917;-80
2021/05/25 09:16:50;;;;;;;;;;;;;;;25.42;42.61;95298.94;4993508;28;19963;-80
2021/05/25 09:19:16;;;;;;;;;;;;;;;25.49;42.74;95290.47;5035774;28;19917;-79
2021/05/25 09:21:41;;;;;;;;;;;;;;;25.87;41.99;95290.59;5026147;28;20007;-79
2021/05/25 09:24:06;;;;;;;;;;;;;;;25.92;41.80;95291.22;5025264;28;20396;-79
2021/05/25 09:26:39;;;;;;;;;;;;;;;25.72;42.06;95292.69;5020030;28;19921;-81
2021/05/25 09:29:06;;;;;;;;;;;;;;;25.70;42.37;95280.75;5018720;28;19917;-81
2021/05/25 09:31:48;;;;;;;;;;;;;;;26.29;41.54;95288.91;5016731;28;19956;-81
2021/05/25 09:34:15;;;;;;;;;;;;;;;26.59;40.71;95297.75;5015950;28;20004;-81
2021/05/25 09:36:59;;;;;;;;;;;;;;;26.76;40.13;95291.56;5016039;28;19925;-80
2021/05/25 09:39:25;;;;;;;;;;;;;;;26.29;40.80;95292.38;5016496;28;19999;-81
2021/05/25 09:42:00;;;;;;;;;;;;;;;26.19;41.25;95281.25;5016919;28;19921;-81
2021/05/25 09:44:28;;;;;;;;;;;;;;;26.00;41.18;95287.75;5016492;28;19917;-80
2021/05/25 09:46:53;;;;;;;;;;;;;;;26.10;40.87;95291.19;5018082;28;20389;-81
2021/05/25 09:49:20;;;;;;;;;;;;;;;26.36;40.59;95283.09;5035538;28;19918;-81
2021/05/25 09:51:45;;;;;;;;;;;;;;;26.49;40.58;95277.56;5034014;28;20372;-81
2021/05/25 09:54:21;;;;;;;;;;;;;;;26.63;39.96;95298.69;5027861;28;19956;-79
2021/05/25 09:56:57;;;;;;;;;;;;;;;26.48;40.35;95275.22;5031993;28;19980;-79
2021/05/25 09:59:26;;;;;;;;;;;;;;;26.32;40.97;95277.59;5060693;22;19929;-81
2021/05/25 10:01:51;;;;;;;;;;;;;;;26.31;40.93;95268.03;5047048;28;19921;-81
2021/05/25 10:04:17;;;;;;;;;;;;;;;26.43;40.49;95278.06;5026476;28;20395;-81
2021/05/25 10:06:48;;;;;;;;;;;;;;;26.57;40.09;95267.97;5013227;28;19956;-80
2021/05/25 10:09:13;;;;;;;;;;;;;;;26.40;40.25;95273.38;5026092;28;19968;-81
2021/05/25 10:11:43;;;;;;;;;;;;;;;26.74;39.80;95265.19;5046315;28;19987;-81
2021/05/25 10:14:11;;;;;;;;;;;;;;;27.01;39.26;95263.16;5034543;28;20016;-80
2021/05/25 10:16:43;;;;;;;;;;;;;;;26.58;40.12;95258.84;5010565;28;20402;-80
2021/05/25 10:21:33;;;;;;;;;;;;;;;26.38;40.09;95259.59;5043710;28;19977;-79
2021/05/25 10:23:58;;;;;;;;;;;;;;;26.42;40.68;95252.50;5025995;28;19939;-79
2021/05/25 10:26:24;;;;;;;;;;;;;;;26.31;40.61;95249.38;5028028;28;19925;-78
2021/05/25 10:28:50;;;;;;;;;;;;;;;26.46;40.54;95250.75;5010688;28;19927;-80
2021/05/25 10:31:24;;;;;;;;;;;;;;;26.18;41.32;95235.16;5030636;28;19931;-79
2021/05/25 10:33:49;;;;;;;;;;;;;;;25.79;42.42;95233.59;5030309;28;19928;-79
2021/05/25 10:36:16;;;;;;;;;;;;;;;25.82;41.46;95229.50;5007795;28;19920;-80
2021/05/25 10:38:45;;;;;;;;;;;;;;;25.94;41.68;95233.06;5027524;28;19921;-80
2021/05/25 10:41:16;;;;;;;;;;;;;;;26.02;41.69;95234.91;5026702;28;20470;-79
2021/05/25 10:43:47;;;;;;;;;;;;;;;26.12;40.94;95223.13;5010243;28;19921;-80
2021/05/25 10:46:13;;;;;;;;;;;;;;;26.39;40.83;95224.59;5025695;28;19921;-80
2021/05/25 10:49:35;;;;;;;;;;;;;;;26.40;40.49;95226.16;5042977;28;20455;-79
2021/05/25 10:51:53;;;;;;;;;;;;;;;26.65;40.22;95232.44;5034425;28;20309;-78
2021/05/25 10:54:26;;;;;;;;;;;;;;;26.76;39.74;95222.97;5046470;28;19988;-79
2021/05/25 10:56:52;;;;;;;;;;;;;;;26.68;39.93;95220.34;5023035;28;19917;-78
2021/05/25 10:59:18;;;;;;;;;;;;;;;26.62;39.92;95211.75;5022885;28;19924;-80
2021/05/25 11:01:44;;;;;;;;;;;;;;;26.76;39.46;95203.50;5007234;28;20443;-79
2021/05/25 11:04:10;;;;;;;;;;;;;;;26.47;40.27;95196.31;5024627;28;19928;-79
2021/05/25 11:06:35;;;;;;;;;;;;;;;26.32;41.00;95198.41;5006535;28;20455;-79
2021/05/25 11:09:19;;;;;;;;;;;;;;;26.59;40.71;95207.06;5010072;28;19931;-79
2021/05/25 11:11:44;;;;;;;;;;;;;;;26.33;41.11;95210.63;5025301;28;19927;-79
2021/05/25 11:14:10;;;;;;;;;;;;;;;26.16;41.23;95194.72;5041028;28;19920;-79
2021/05/25 11:16:35;;;;;;;;;;;;;;;26.10;41.56;95190.69;5023981;28;20427;-79
2021/05/25 11:24:30;;;;;;;;;;;;;;;26.03;41.93;95185.06;5044263;28;20048;-83
2021/05/25 11:26:59;;;;;;;;;;;;;;;25.69;42.39;95188.63;5025422;28;20016;-84
2021/05/25 11:29:35;;;;;;;;;;;;;;;25.76;42.48;95180.16;5045816;28;19921;-84
2021/05/25 11:32:13;;;;;;;;;;;;;;;25.80;42.60;95179.19;5011378;28;19921;-83
2021/05/25 11:34:38;;;;;;;;;;;;;;;25.45;42.78;95175.81;5010171;28;20349;-84
2021/05/25 11:37:04;;;;;;;;;;;;;;;25.34;42.51;95195.88;5025740;28;19979;-85
2021/05/25 11:39:30;;;;;;;;;;;;;;;25.41;42.93;95180.22;5013506;28;20328;-84
2021/05/25 11:41:56;;;;;;;;;;;;;;;25.83;42.20;95175.09;5026095;28;19921;-84
2021/05/25 11:44:28;;;;;;;;;;;;;;;26.19;41.95;95172.75;5021461;28;19921;-84
2021/05/25 11:46:53;;;;;;;;;;;;;;;26.47;41.38;95182.97;5029108;28;19924;-84
2021/05/25 11:49:19;;;;;;;;;;;;;;;26.70;40.96;95170.13;5024198;28;19978;-84
2021/05/25 11:51:44;;;;;;;;;;;;;;;26.47;41.55;95166.97;5028851;28;19932;-84
2021/05/25 11:54:10;;;;;;;;;;;;;;;26.63;41.28;95170.63;5029510;28;19967;-84
2021/05/25 11:56:36;;;;;;;;;;;;;;;26.69;41.10;95174.69;5043658;28;19927;-84
2021/05/25 11:59:01;;;;;;;;;;;;;;;26.84;40.81;95175.97;5041211;28;19931;-82
2021/05/25 12:01:40;;;;;;;;;;;;;;;26.79;40.79;95174.28;5026728;28;19972;-82
2021/05/25 12:04:05;;;;;;;;;;;;;;;26.88;41.32;95161.66;5857362;22;19923;-83
2021/05/25 12:06:31;;;;;;;;;;;;;;;26.37;41.72;95168.16;5042786;28;20400;-83
2021/05/25 12:09:05;;;;;;;;;;;;;;;26.28;42.34;95156.72;5043012;28;19978;-83
2021/05/25 12:11:35;;;;;;;;;;;;;;;26.37;42.02;95157.50;5005957;28;19920;-83
2021/05/25 12:14:00;;;;;;;;;;;;;;;26.32;41.71;95153.06;5023796;28;19921;-84
2021/05/25 12:16:26;;;;;;;;;;;;;;;25.94;42.60;95157.69;5032252;28;19925;-84
2021/05/25 12:18:51;;;;;;;;;;;;;;;26.14;42.71;95146.28;5049502;28;19966;-84
2021/05/25 12:21:16;;;;;;;;;;;;;;;26.17;42.79;95134.19;5050427;28;20019;-84
2021/05/25 12:23:44;;;;;;;;;;;;;;;26.41;42.29;95146.94;5053365;28;19925;-84
2021/05/25 12:26:11;;;;;;;;;;;;;;;26.55;42.63;95131.47;5032263;28;19930;-85
2021/05/25 12:28:37;;;;;;;;;;;;;;;26.92;41.53;95138.56;5038258;28;19917;-84
2021/05/25 12:31:03;;;;;;;;;;;;;;;27.32;41.02;95126.56;5049511;28;19994;-84
2021/05/25 12:33:31;;;;;;;;;;;;;;;27.62;40.11;95129.88;5017132;28;20416;-84
2021/05/25 12:36:16;;;;;;;;;;;;;;;27.72;39.74;95118.78;5033289;28;19925;-84
2021/05/25 12:38:58;;;;;;;;;;;;;;;27.61;39.29;95123.75;5016000;28;20376;-84
2021/05/25 12:41:23;;;;;;;;;;;;;;;27.43;39.67;95117.81;5031356;28;19928;-84
2021/05/25 12:43:48;;;;;;;;;;;;;;;27.58;39.92;95128.97;5034334;28;19921;-84
2021/05/25 12:46:14;;;;;;;;;;;;;;;27.09;40.53;95118.19;5051469;28;20526;-84
2021/05/25 12:48:41;;;;;;;;;;;;;;;27.05;40.37;95111.94;5015543;28;19925;-84
2021/05/25 12:51:12;;;;;;;;;;;;;;;27.13;40.65;95105.72;5030621;28;19921;-84
2021/05/25 12:53:50;;;;;;;;;;;;;;;27.38;39.90;95104.69;5030733;28;19921;-84
2021/05/25 12:56:16;;;;;;;;;;;;;;;27.40;40.21;95097.13;5011197;28;19932;-83
2021/05/25 12:58:44;;;;;;;;;;;;;;;27.56;40.41;95080.44;5027085;28;19925;-84
2021/05/25 13:01:19;;;;;;;;;;;;;;;27.60;39.04;95084.00;5046477;28;19921;-83
2021/05/25 13:03:44;;;;;;;;;;;;;;;27.46;39.64;95078.97;5044040;28;20012;-73